sensor_id;sensor_type;location;lat;lon;timestamp;pressure;altitude;pressure_sealevel;temperature
15062;BMP180;7630;50.306;8.566;2023-01-28T00:02:55;98555.00;;;1.60
15062;BMP180;7630;50.306;8.566;2023-01-28T00:06:56;98547.00;;;2.00
15062;BMP180;7630;50.306;8.566;2023-01-28T00:10:58;98561.00;;;2.30
15062;BMP180;7630;50.306;8.566;2023-01-28T00:15:00;98555.00;;;2.30
15062;BMP180;7630;50.306;8.566;2023-01-28T00:19:01;98568.00;;;2.30
15062;BMP180;7630;50.306;8.566;2023-01-28T00:23:02;98562.00;;;2.20
15062;BMP180;7630;50.306;8.566;2023-01-28T00:27:03;98556.00;;;2.00
15062;BMP180;7630;50.306;8.566;2023-01-28T00:31:10;98552.00;;;2.30
15062;BMP180;7630;50.306;8.566;2023-01-28T00:35:12;98553.00;;;2.80
15062;BMP180;7630;50.306;8.566;2023-01-28T00:39:14;98557.00;;;3.40
15062;BMP180;7630;50.306;8.566;2023-01-28T00:43:15;98549.00;;;2.70
15062;BMP180;7630;50.306;8.566;2023-01-28T00:47:16;98560.00;;;2.70
15062;BMP180;7630;50.306;8.566;2023-01-28T00:51:18;98549.00;;;1.40
15062;BMP180;7630;50.306;8.566;2023-01-28T00:55:22;98561.00;;;1.50
15062;BMP180;7630;50.306;8.566;2023-01-28T00:59:23;98551.00;;;1.80
15062;BMP180;7630;50.306;8.566;2023-01-28T01:03:24;98538.00;;;1.70
15062;BMP180;7630;50.306;8.566;2023-01-28T01:07:28;98544.00;;;1.40
15062;BMP180;7630;50.306;8.566;2023-01-28T01:11:34;98550.00;;;1.30
15062;BMP180;7630;50.306;8.566;2023-01-28T01:15:36;98539.00;;;1.60
15062;BMP180;7630;50.306;8.566;2023-01-28T01:19:37;98545.00;;;1.60
15062;BMP180;7630;50.306;8.566;2023-01-28T01:23:38;98546.00;;;1.10
15062;BMP180;7630;50.306;8.566;2023-01-28T01:27:40;98543.00;;;1.90
15062;BMP180;7630;50.306;8.566;2023-01-28T01:31:41;98535.00;;;1.50
15062;BMP180;7630;50.306;8.566;2023-01-28T01:35:43;98541.00;;;1.30
15062;BMP180;7630;50.306;8.566;2023-01-28T01:39:44;98527.00;;;1.40
15062;BMP180;7630;50.306;8.566;2023-01-28T01:43:51;98541.00;;;2.40
15062;BMP180;7630;50.306;8.566;2023-01-28T01:47:56;98566.00;;;1.40
15062;BMP180;7630;50.306;8.566;2023-01-28T01:52:05;98571.00;;;1.50
15062;BMP180;7630;50.306;8.566;2023-01-28T01:56:06;98578.00;;;1.70
15062;BMP180;7630;50.306;8.566;2023-01-28T02:00:09;98582.00;;;1.80
15062;BMP180;7630;50.306;8.566;2023-01-28T02:04:31;98583.00;;;2.10
15062;BMP180;7630;50.306;8.566;2023-01-28T02:08:33;98597.00;;;2.30
15062;BMP180;7630;50.306;8.566;2023-01-28T02:12:37;98576.00;;;2.00
15062;BMP180;7630;50.306;8.566;2023-01-28T02:16:39;98577.00;;;1.30
15062;BMP180;7630;50.306;8.566;2023-01-28T02:29:37;98574.00;;;2.60
15062;BMP180;7630;50.306;8.566;2023-01-28T02:33:47;98580.00;;;2.30
15062;BMP180;7630;50.306;8.566;2023-01-28T02:37:52;98593.00;;;3.40
15062;BMP180;7630;50.306;8.566;2023-01-28T02:41:58;98593.00;;;2.90
15062;BMP180;7630;50.306;8.566;2023-01-28T02:46:04;98595.00;;;3.60
15062;BMP180;7630;50.306;8.566;2023-01-28T02:50:26;98594.00;;;2.20
15062;BMP180;7630;50.306;8.566;2023-01-28T03:02:52;98600.00;;;2.00
15062;BMP180;7630;50.306;8.566;2023-01-28T03:06:59;98609.00;;;1.90
15062;BMP180;7630;50.306;8.566;2023-01-28T03:11:04;98608.00;;;2.80
15062;BMP180;7630;50.306;8.566;2023-01-28T03:15:31;98606.00;;;1.60
15062;BMP180;7630;50.306;8.566;2023-01-28T03:19:50;98617.00;;;2.00
15062;BMP180;7630;50.306;8.566;2023-01-28T03:24:15;98616.00;;;2.10
15062;BMP180;7630;50.306;8.566;2023-01-28T03:28:35;98619.00;;;3.10
15062;BMP180;7630;50.306;8.566;2023-01-28T03:32:57;98601.00;;;1.70
15062;BMP180;7630;50.306;8.566;2023-01-28T03:37:17;98639.00;;;2.60
15062;BMP180;7630;50.306;8.566;2023-01-28T03:41:22;98629.00;;;2.30
15062;BMP180;7630;50.306;8.566;2023-01-28T03:45:23;98641.00;;;2.20
15062;BMP180;7630;50.306;8.566;2023-01-28T03:49:24;98641.00;;;1.40
15062;BMP180;7630;50.306;8.566;2023-01-28T03:53:26;98631.00;;;1.90
15062;BMP180;7630;50.306;8.566;2023-01-28T03:57:28;98633.00;;;1.40
15062;BMP180;7630;50.306;8.566;2023-01-28T04:01:31;98626.00;;;1.80
15062;BMP180;7630;50.306;8.566;2023-01-28T04:05:32;98630.00;;;1.50
15062;BMP180;7630;50.306;8.566;2023-01-28T04:09:36;98625.00;;;1.60
15062;BMP180;7630;50.306;8.566;2023-01-28T04:13:37;98619.00;;;1.60
15062;BMP180;7630;50.306;8.566;2023-01-28T04:17:39;98634.00;;;2.00
15062;BMP180;7630;50.306;8.566;2023-01-28T04:21:40;98640.00;;;2.00
15062;BMP180;7630;50.306;8.566;2023-01-28T04:25:41;98634.00;;;1.80
15062;BMP180;7630;50.306;8.566;2023-01-28T04:29:42;98640.00;;;2.20
15062;BMP180;7630;50.306;8.566;2023-01-28T04:33:43;98643.00;;;2.10
15062;BMP180;7630;50.306;8.566;2023-01-28T04:37:44;98639.00;;;1.80
15062;BMP180;7630;50.306;8.566;2023-01-28T04:41:46;98635.00;;;2.00
15062;BMP180;7630;50.306;8.566;2023-01-28T04:45:48;98631.00;;;1.80
15062;BMP180;7630;50.306;8.566;2023-01-28T04:49:49;98645.00;;;1.90
15062;BMP180;7630;50.306;8.566;2023-01-28T04:53:50;98646.00;;;2.00
15062;BMP180;7630;50.306;8.566;2023-01-28T04:57:51;98645.00;;;2.30
15062;BMP180;7630;50.306;8.566;2023-01-28T05:01:52;98645.00;;;1.80
15062;BMP180;7630;50.306;8.566;2023-01-28T05:05:53;98645.00;;;2.30
15062;BMP180;7630;50.306;8.566;2023-01-28T05:09:54;98643.00;;;1.30
15062;BMP180;7630;50.306;8.566;2023-01-28T05:13:55;98642.00;;;2.50
15062;BMP180;7630;50.306;8.566;2023-01-28T05:17:57;98641.00;;;3.00
15062;BMP180;7630;50.306;8.566;2023-01-28T05:21:58;98648.00;;;3.00
15062;BMP180;7630;50.306;8.566;2023-01-28T05:26:02;98647.00;;;2.40
15062;BMP180;7630;50.306;8.566;2023-01-28T05:30:04;98740.00;;;1.90
15062;BMP180;7630;50.306;8.566;2023-01-28T05:34:06;98660.00;;;2.70
15062;BMP180;7630;50.306;8.566;2023-01-28T05:38:08;98666.00;;;2.10
15062;BMP180;7630;50.306;8.566;2023-01-28T05:42:11;98672.00;;;1.80
15062;BMP180;7630;50.306;8.566;2023-01-28T05:46:15;98674.00;;;2.70
15062;BMP180;7630;50.306;8.566;2023-01-28T05:50:16;98672.00;;;1.80
15062;BMP180;7630;50.306;8.566;2023-01-28T05:54:18;98669.00;;;2.00
15062;BMP180;7630;50.306;8.566;2023-01-28T05:58:19;98678.00;;;1.70
15062;BMP180;7630;50.306;8.566;2023-01-28T06:02:23;98674.00;;;2.00
15062;BMP180;7630;50.306;8.566;2023-01-28T06:06:24;98682.00;;;2.60
15062;BMP180;7630;50.306;8.566;2023-01-28T06:10:25;98685.00;;;2.70
15062;BMP180;7630;50.306;8.566;2023-01-28T06:14:26;98694.00;;;2.00
15062;BMP180;7630;50.306;8.566;2023-01-28T06:18:27;98701.00;;;1.70
15062;BMP180;7630;50.306;8.566;2023-01-28T06:22:28;98717.00;;;2.80
15062;BMP180;7630;50.306;8.566;2023-01-28T06:26:29;98699.00;;;2.20
15062;BMP180;7630;50.306;8.566;2023-01-28T06:30:30;98703.00;;;2.10
15062;BMP180;7630;50.306;8.566;2023-01-28T06:34:32;98706.00;;;1.80
15062;BMP180;7630;50.306;8.566;2023-01-28T06:38:33;98711.00;;;0.80
15062;BMP180;7630;50.306;8.566;2023-01-28T06:42:34;98713.00;;;2.00
15062;BMP180;7630;50.306;8.566;2023-01-28T06:46:35;98716.00;;;2.40
15062;BMP180;7630;50.306;8.566;2023-01-28T06:50:36;98720.00;;;1.70
15062;BMP180;7630;50.306;8.566;2023-01-28T06:54:38;98721.00;;;1.80
15062;BMP180;7630;50.306;8.566;2023-01-28T06:58:39;98719.00;;;1.90
15062;BMP180;7630;50.306;8.566;2023-01-28T07:02:40;98737.00;;;1.60
15062;BMP180;7630;50.306;8.566;2023-01-28T07:06:41;98736.00;;;1.90
15062;BMP180;7630;50.306;8.566;2023-01-28T07:10:43;98728.00;;;1.30
15062;BMP180;7630;50.306;8.566;2023-01-28T07:14:44;98732.00;;;1.60
15062;BMP180;7630;50.306;8.566;2023-01-28T07:18:45;98739.00;;;1.30
15062;BMP180;7630;50.306;8.566;2023-01-28T07:22:47;98740.00;;;1.30
15062;BMP180;7630;50.306;8.566;2023-01-28T07:26:49;98744.00;;;1.10
15062;BMP180;7630;50.306;8.566;2023-01-28T07:30:50;98746.00;;;1.10
15062;BMP180;7630;50.306;8.566;2023-01-28T07:34:53;98743.00;;;1.50
15062;BMP180;7630;50.306;8.566;2023-01-28T07:38:56;98754.00;;;1.50
15062;BMP180;7630;50.306;8.566;2023-01-28T07:42:57;98759.00;;;2.10
15062;BMP180;7630;50.306;8.566;2023-01-28T07:46:59;98757.00;;;1.20
15062;BMP180;7630;50.306;8.566;2023-01-28T07:51:00;98747.00;;;0.90
15062;BMP180;7630;50.306;8.566;2023-01-28T07:55:04;98761.00;;;1.40
15062;BMP180;7630;50.306;8.566;2023-01-28T07:59:05;98761.00;;;2.10
15062;BMP180;7630;50.306;8.566;2023-01-28T08:03:12;98759.00;;;1.60
15062;BMP180;7630;50.306;8.566;2023-01-28T08:07:15;98769.00;;;1.40
15062;BMP180;7630;50.306;8.566;2023-01-28T08:11:16;98778.00;;;1.60
15062;BMP180;7630;50.306;8.566;2023-01-28T08:15:17;98775.00;;;0.80
15062;BMP180;7630;50.306;8.566;2023-01-28T08:19:18;98763.00;;;1.00
15062;BMP180;7630;50.306;8.566;2023-01-28T08:23:21;98777.00;;;1.70
15062;BMP180;7630;50.306;8.566;2023-01-28T08:27:25;98779.00;;;1.00
15062;BMP180;7630;50.306;8.566;2023-01-28T08:31:26;98777.00;;;1.90
15062;BMP180;7630;50.306;8.566;2023-01-28T08:35:29;98783.00;;;1.00
15062;BMP180;7630;50.306;8.566;2023-01-28T08:39:30;98785.00;;;1.00
15062;BMP180;7630;50.306;8.566;2023-01-28T08:43:31;98776.00;;;1.30
15062;BMP180;7630;50.306;8.566;2023-01-28T08:47:32;98791.00;;;1.60
15062;BMP180;7630;50.306;8.566;2023-01-28T08:51:33;98782.00;;;1.40
15062;BMP180;7630;50.306;8.566;2023-01-28T08:55:35;98880.00;;;0.90
15062;BMP180;7630;50.306;8.566;2023-01-28T08:59:36;98783.00;;;1.10
15062;BMP180;7630;50.306;8.566;2023-01-28T09:03:39;98795.00;;;0.80
15062;BMP180;7630;50.306;8.566;2023-01-28T09:07:40;98782.00;;;1.20
15062;BMP180;7630;50.306;8.566;2023-01-28T09:11:41;98794.00;;;0.90
15062;BMP180;7630;50.306;8.566;2023-01-28T09:15:43;98788.00;;;0.60
15062;BMP180;7630;50.306;8.566;2023-01-28T09:19:44;98798.00;;;1.10
15062;BMP180;7630;50.306;8.566;2023-01-28T09:23:45;98801.00;;;1.00
15062;BMP180;7630;50.306;8.566;2023-01-28T09:27:46;98796.00;;;1.00
15062;BMP180;7630;50.306;8.566;2023-01-28T09:31:48;98811.00;;;0.70
15062;BMP180;7630;50.306;8.566;2023-01-28T09:35:50;98813.00;;;1.30
15062;BMP180;7630;50.306;8.566;2023-01-28T09:39:51;98819.00;;;1.40
15062;BMP180;7630;50.306;8.566;2023-01-28T09:48:21;98823.00;;;1.00
15062;BMP180;7630;50.306;8.566;2023-01-28T09:52:33;98835.00;;;1.50
15062;BMP180;7630;50.306;8.566;2023-01-28T09:56:35;98835.00;;;1.20
15062;BMP180;7630;50.306;8.566;2023-01-28T10:09:28;98857.00;;;1.10
15062;BMP180;7630;50.306;8.566;2023-01-28T10:13:49;98846.00;;;1.10
15062;BMP180;7630;50.306;8.566;2023-01-28T10:17:53;98853.00;;;1.30
15062;BMP180;7630;50.306;8.566;2023-01-28T10:22:04;98848.00;;;0.80
15062;BMP180;7630;50.306;8.566;2023-01-28T10:26:14;98849.00;;;1.00
15062;BMP180;7630;50.306;8.566;2023-01-28T10:30:25;98844.00;;;1.10
15062;BMP180;7630;50.306;8.566;2023-01-28T10:34:27;98847.00;;;1.60
15062;BMP180;7630;50.306;8.566;2023-01-28T10:38:30;98841.00;;;0.80
15062;BMP180;7630;50.306;8.566;2023-01-28T10:42:34;98851.00;;;0.90
15062;BMP180;7630;50.306;8.566;2023-01-28T10:46:35;98849.00;;;0.60
15062;BMP180;7630;50.306;8.566;2023-01-28T10:50:47;98847.00;;;0.20
15062;BMP180;7630;50.306;8.566;2023-01-28T10:54:43;98844.00;;;0.40
15062;BMP180;7630;50.306;8.566;2023-01-28T10:59:02;98845.00;;;1.50
15062;BMP180;7630;50.306;8.566;2023-01-28T11:03:03;98841.00;;;1.40
15062;BMP180;7630;50.306;8.566;2023-01-28T11:07:15;98841.00;;;1.30
15062;BMP180;7630;50.306;8.566;2023-01-28T11:11:13;98854.00;;;1.10
15062;BMP180;7630;50.306;8.566;2023-01-28T11:15:18;98854.00;;;0.60
15062;BMP180;7630;50.306;8.566;2023-01-28T11:19:21;98844.00;;;0.10
15062;BMP180;7630;50.306;8.566;2023-01-28T11:23:30;98834.00;;;0.20
15062;BMP180;7630;50.306;8.566;2023-01-28T11:27:33;98839.00;;;1.00
15062;BMP180;7630;50.306;8.566;2023-01-28T11:31:38;98829.00;;;1.00
15062;BMP180;7630;50.306;8.566;2023-01-28T11:35:39;98834.00;;;1.20
15062;BMP180;7630;50.306;8.566;2023-01-28T11:39:40;98840.00;;;1.70
15062;BMP180;7630;50.306;8.566;2023-01-28T11:43:42;98828.00;;;1.20
15062;BMP180;7630;50.306;8.566;2023-01-28T11:47:58;98847.00;;;0.70
15062;BMP180;7630;50.306;8.566;2023-01-28T11:52:37;98829.00;;;1.00
15062;BMP180;7630;50.306;8.566;2023-01-28T11:57:15;98836.00;;;0.60
15062;BMP180;7630;50.306;8.566;2023-01-28T12:05:38;98818.00;;;0.90
15062;BMP180;7630;50.306;8.566;2023-01-28T12:09:54;98836.00;;;0.90
15062;BMP180;7630;50.306;8.566;2023-01-28T12:18:37;98802.00;;;1.30
15062;BMP180;7630;50.306;8.566;2023-01-28T12:22:51;98802.00;;;1.00
15062;BMP180;7630;50.306;8.566;2023-01-28T12:40:32;98803.00;;;1.10
15062;BMP180;7630;50.306;8.566;2023-01-28T12:44:30;98791.00;;;0.60
15062;BMP180;7630;50.306;8.566;2023-01-28T12:48:43;98792.00;;;1.10
15062;BMP180;7630;50.306;8.566;2023-01-28T12:52:52;98788.00;;;1.60
15062;BMP180;7630;50.306;8.566;2023-01-28T12:56:54;98797.00;;;0.80
15062;BMP180;7630;50.306;8.566;2023-01-28T13:00:59;98799.00;;;0.80
15062;BMP180;7630;50.306;8.566;2023-01-28T13:05:07;98791.00;;;0.50
15062;BMP180;7630;50.306;8.566;2023-01-28T13:09:23;98807.00;;;0.60
15062;BMP180;7630;50.306;8.566;2023-01-28T13:13:33;98808.00;;;1.00
15062;BMP180;7630;50.306;8.566;2023-01-28T13:17:35;98800.00;;;1.10
15062;BMP180;7630;50.306;8.566;2023-01-28T13:21:36;98805.00;;;0.60
15062;BMP180;7630;50.306;8.566;2023-01-28T13:25:47;98821.00;;;0.90
15062;BMP180;7630;50.306;8.566;2023-01-28T13:29:47;98826.00;;;1.40
15062;BMP180;7630;50.306;8.566;2023-01-28T13:38:09;98826.00;;;1.00
15062;BMP180;7630;50.306;8.566;2023-01-28T13:42:26;98848.00;;;1.50
15062;BMP180;7630;50.306;8.566;2023-01-28T13:46:29;98820.00;;;0.90
15062;BMP180;7630;50.306;8.566;2023-01-28T13:50:41;98802.00;;;0.60
15062;BMP180;7630;50.306;8.566;2023-01-28T13:54:50;98852.00;;;1.20
15062;BMP180;7630;50.306;8.566;2023-01-28T14:07:46;98828.00;;;1.10
15062;BMP180;7630;50.306;8.566;2023-01-28T14:16:24;98832.00;;;1.00
15062;BMP180;7630;50.306;8.566;2023-01-28T14:20:43;98833.00;;;1.10
15062;BMP180;7630;50.306;8.566;2023-01-28T14:24:45;98842.00;;;1.20
15062;BMP180;7630;50.306;8.566;2023-01-28T14:29:11;98835.00;;;1.20
15062;BMP180;7630;50.306;8.566;2023-01-28T14:33:11;98826.00;;;1.10
15062;BMP180;7630;50.306;8.566;2023-01-28T14:37:18;98824.00;;;0.80
15062;BMP180;7630;50.306;8.566;2023-01-28T14:41:24;98825.00;;;0.80
15062;BMP180;7630;50.306;8.566;2023-01-28T14:58:18;98809.00;;;0.90
15062;BMP180;7630;50.306;8.566;2023-01-28T15:02:28;98827.00;;;0.60
15062;BMP180;7630;50.306;8.566;2023-01-28T15:06:36;98812.00;;;1.70
15062;BMP180;7630;50.306;8.566;2023-01-28T15:10:38;98816.00;;;1.20
15062;BMP180;7630;50.306;8.566;2023-01-28T15:14:39;98809.00;;;0.80
15062;BMP180;7630;50.306;8.566;2023-01-28T15:18:42;98799.00;;;1.10
15062;BMP180;7630;50.306;8.566;2023-01-28T15:22:44;98795.00;;;2.20
15062;BMP180;7630;50.306;8.566;2023-01-28T15:26:46;98800.00;;;1.60
15062;BMP180;7630;50.306;8.566;2023-01-28T15:30:48;98818.00;;;1.40
15062;BMP180;7630;50.306;8.566;2023-01-28T15:34:49;98822.00;;;1.10
15062;BMP180;7630;50.306;8.566;2023-01-28T15:38:50;98815.00;;;1.00
15062;BMP180;7630;50.306;8.566;2023-01-28T15:42:52;98817.00;;;1.90
15062;BMP180;7630;50.306;8.566;2023-01-28T15:46:59;98810.00;;;1.30
15062;BMP180;7630;50.306;8.566;2023-01-28T15:51:08;98809.00;;;0.90
15062;BMP180;7630;50.306;8.566;2023-01-28T15:59:43;98813.00;;;2.00
15062;BMP180;7630;50.306;8.566;2023-01-28T16:04:02;98826.00;;;1.60
15062;BMP180;7630;50.306;8.566;2023-01-28T16:08:09;98844.00;;;0.90
15062;BMP180;7630;50.306;8.566;2023-01-28T16:12:12;98841.00;;;0.70
15062;BMP180;7630;50.306;8.566;2023-01-28T16:16:14;98833.00;;;1.50
15062;BMP180;7630;50.306;8.566;2023-01-28T16:20:24;98839.00;;;2.00
15062;BMP180;7630;50.306;8.566;2023-01-28T16:24:28;98849.00;;;1.30
15062;BMP180;7630;50.306;8.566;2023-01-28T16:28:31;98850.00;;;1.10
15062;BMP180;7630;50.306;8.566;2023-01-28T16:32:36;98859.00;;;2.20
15062;BMP180;7630;50.306;8.566;2023-01-28T16:36:38;98848.00;;;1.50
15062;BMP180;7630;50.306;8.566;2023-01-28T16:40:39;98857.00;;;2.10
15062;BMP180;7630;50.306;8.566;2023-01-28T16:44:40;98852.00;;;3.00
15062;BMP180;7630;50.306;8.566;2023-01-28T16:48:41;98861.00;;;3.10
15062;BMP180;7630;50.306;8.566;2023-01-28T16:52:44;98857.00;;;3.10
15062;BMP180;7630;50.306;8.566;2023-01-28T16:56:46;98852.00;;;3.50
15062;BMP180;7630;50.306;8.566;2023-01-28T17:00:47;98861.00;;;2.90
15062;BMP180;7630;50.306;8.566;2023-01-28T17:04:49;98860.00;;;1.50
15062;BMP180;7630;50.306;8.566;2023-01-28T17:08:50;98871.00;;;1.60
15062;BMP180;7630;50.306;8.566;2023-01-28T17:12:51;98876.00;;;2.10
15062;BMP180;7630;50.306;8.566;2023-01-28T17:16:54;98875.00;;;1.80
15062;BMP180;7630;50.306;8.566;2023-01-28T17:21:01;98860.00;;;1.90
15062;BMP180;7630;50.306;8.566;2023-01-28T17:25:02;98859.00;;;3.40
15062;BMP180;7630;50.306;8.566;2023-01-28T17:29:05;98863.00;;;2.70
15062;BMP180;7630;50.306;8.566;2023-01-28T17:33:07;98860.00;;;3.60
15062;BMP180;7630;50.306;8.566;2023-01-28T17:37:08;98881.00;;;3.80
15062;BMP180;7630;50.306;8.566;2023-01-28T17:41:10;98893.00;;;2.50
15062;BMP180;7630;50.306;8.566;2023-01-28T17:45:13;98904.00;;;1.30
15062;BMP180;7630;50.306;8.566;2023-01-28T17:49:15;98901.00;;;1.90
15062;BMP180;7630;50.306;8.566;2023-01-28T17:53:16;98906.00;;;2.70
15062;BMP180;7630;50.306;8.566;2023-01-28T17:57:17;98916.00;;;3.20
15062;BMP180;7630;50.306;8.566;2023-01-28T18:01:19;98926.00;;;1.30
15062;BMP180;7630;50.306;8.566;2023-01-28T18:05:20;98931.00;;;1.80
15062;BMP180;7630;50.306;8.566;2023-01-28T18:09:22;98941.00;;;1.80
15062;BMP180;7630;50.306;8.566;2023-01-28T18:13:23;98936.00;;;1.70
15062;BMP180;7630;50.306;8.566;2023-01-28T18:17:24;98945.00;;;1.80
15062;BMP180;7630;50.306;8.566;2023-01-28T18:21:34;98957.00;;;1.00
15062;BMP180;7630;50.306;8.566;2023-01-28T18:25:38;98950.00;;;0.80
15062;BMP180;7630;50.306;8.566;2023-01-28T18:29:39;98961.00;;;0.80
15062;BMP180;7630;50.306;8.566;2023-01-28T18:33:40;98963.00;;;1.50
15062;BMP180;7630;50.306;8.566;2023-01-28T18:37:41;98966.00;;;2.00
15062;BMP180;7630;50.306;8.566;2023-01-28T18:41:42;98950.00;;;3.30
15062;BMP180;7630;50.306;8.566;2023-01-28T18:45:43;98963.00;;;3.20
15062;BMP180;7630;50.306;8.566;2023-01-28T18:49:46;98956.00;;;2.70
15062;BMP180;7630;50.306;8.566;2023-01-28T18:53:47;98956.00;;;3.40
15062;BMP180;7630;50.306;8.566;2023-01-28T18:57:48;98947.00;;;2.50
15062;BMP180;7630;50.306;8.566;2023-01-28T19:01:50;98961.00;;;2.50
15062;BMP180;7630;50.306;8.566;2023-01-28T19:05:51;98968.00;;;2.50
15062;BMP180;7630;50.306;8.566;2023-01-28T19:09:52;98969.00;;;2.40
15062;BMP180;7630;50.306;8.566;2023-01-28T19:13:55;98984.00;;;0.80
15062;BMP180;7630;50.306;8.566;2023-01-28T19:17:56;98951.00;;;1.60
15062;BMP180;7630;50.306;8.566;2023-01-28T19:21:57;98970.00;;;0.70
15062;BMP180;7630;50.306;8.566;2023-01-28T19:26:03;98980.00;;;1.80
15062;BMP180;7630;50.306;8.566;2023-01-28T19:30:06;98961.00;;;1.60
15062;BMP180;7630;50.306;8.566;2023-01-28T19:34:08;98958.00;;;1.60
15062;BMP180;7630;50.306;8.566;2023-01-28T19:38:10;98949.00;;;1.90
15062;BMP180;7630;50.306;8.566;2023-01-28T19:42:11;98949.00;;;1.50
15062;BMP180;7630;50.306;8.566;2023-01-28T19:46:15;98957.00;;;0.40
15062;BMP180;7630;50.306;8.566;2023-01-28T19:50:17;98966.00;;;-0.30
15062;BMP180;7630;50.306;8.566;2023-01-28T19:54:19;98961.00;;;-0.70
15062;BMP180;7630;50.306;8.566;2023-01-28T19:58:20;98986.00;;;0.30
15062;BMP180;7630;50.306;8.566;2023-01-28T20:02:21;98985.00;;;0.10
15062;BMP180;7630;50.306;8.566;2023-01-28T20:06:23;98968.00;;;-0.30
15062;BMP180;7630;50.306;8.566;2023-01-28T20:10:24;98987.00;;;0.20
15062;BMP180;7630;50.306;8.566;2023-01-28T20:14:26;98976.00;;;0.10
15062;BMP180;7630;50.306;8.566;2023-01-28T20:18:27;98968.00;;;0.00
15062;BMP180;7630;50.306;8.566;2023-01-28T20:22:28;98987.00;;;0.30
15062;BMP180;7630;50.306;8.566;2023-01-28T20:26:32;98987.00;;;0.30
15062;BMP180;7630;50.306;8.566;2023-01-28T20:30:33;98985.00;;;1.40
15062;BMP180;7630;50.306;8.566;2023-01-28T20:34:35;98985.00;;;1.10
15062;BMP180;7630;50.306;8.566;2023-01-28T20:38:38;98985.00;;;1.50
15062;BMP180;7630;50.306;8.566;2023-01-28T20:42:40;98987.00;;;1.50
15062;BMP180;7630;50.306;8.566;2023-01-28T20:46:41;98980.00;;;2.30
15062;BMP180;7630;50.306;8.566;2023-01-28T20:50:42;98982.00;;;1.50
15062;BMP180;7630;50.306;8.566;2023-01-28T20:54:43;98993.00;;;2.10
15062;BMP180;7630;50.306;8.566;2023-01-28T20:58:45;98988.00;;;0.80
15062;BMP180;7630;50.306;8.566;2023-01-28T21:02:46;98996.00;;;0.30
15062;BMP180;7630;50.306;8.566;2023-01-28T21:06:48;98984.00;;;-0.20
15062;BMP180;7630;50.306;8.566;2023-01-28T21:10:49;99000.00;;;0.20
15062;BMP180;7630;50.306;8.566;2023-01-28T21:14:50;98977.00;;;0.80
15062;BMP180;7630;50.306;8.566;2023-01-28T21:18:52;98983.00;;;1.70
15062;BMP180;7630;50.306;8.566;2023-01-28T21:22:53;98990.00;;;1.20
15062;BMP180;7630;50.306;8.566;2023-01-28T21:26:54;98986.00;;;0.50
15062;BMP180;7630;50.306;8.566;2023-01-28T21:31:16;98985.00;;;0.10
15062;BMP180;7630;50.306;8.566;2023-01-28T21:35:17;98988.00;;;0.40
15062;BMP180;7630;50.306;8.566;2023-01-28T21:39:18;98981.00;;;0.70
15062;BMP180;7630;50.306;8.566;2023-01-28T21:43:20;98985.00;;;1.50
15062;BMP180;7630;50.306;8.566;2023-01-28T21:47:21;98982.00;;;1.20
15062;BMP180;7630;50.306;8.566;2023-01-28T21:51:23;98972.00;;;0.90
15062;BMP180;7630;50.306;8.566;2023-01-28T21:55:43;98978.00;;;1.60
15062;BMP180;7630;50.306;8.566;2023-01-28T21:59:45;98970.00;;;1.90
15062;BMP180;7630;50.306;8.566;2023-01-28T22:03:46;98971.00;;;2.00
15062;BMP180;7630;50.306;8.566;2023-01-28T22:07:47;98977.00;;;2.40
15062;BMP180;7630;50.306;8.566;2023-01-28T22:11:48;98976.00;;;1.20
15062;BMP180;7630;50.306;8.566;2023-01-28T22:15:50;98970.00;;;2.30
15062;BMP180;7630;50.306;8.566;2023-01-28T22:19:51;98977.00;;;2.20
15062;BMP180;7630;50.306;8.566;2023-01-28T22:23:53;98976.00;;;2.10
15062;BMP180;7630;50.306;8.566;2023-01-28T22:27:54;98974.00;;;2.70
15062;BMP180;7630;50.306;8.566;2023-01-28T22:31:55;98976.00;;;1.90
15062;BMP180;7630;50.306;8.566;2023-01-28T22:35:56;98974.00;;;3.00
15062;BMP180;7630;50.306;8.566;2023-01-28T22:39:57;98962.00;;;2.90
15062;BMP180;7630;50.306;8.566;2023-01-28T22:43:59;98963.00;;;3.00
15062;BMP180;7630;50.306;8.566;2023-01-28T22:48:04;98965.00;;;2.60
15062;BMP180;7630;50.306;8.566;2023-01-28T22:52:05;99006.00;;;2.70
15062;BMP180;7630;50.306;8.566;2023-01-28T22:56:06;98951.00;;;3.20
15062;BMP180;7630;50.306;8.566;2023-01-28T23:00:10;98952.00;;;3.50
15062;BMP180;7630;50.306;8.566;2023-01-28T23:04:12;98950.00;;;3.80
15062;BMP180;7630;50.306;8.566;2023-01-28T23:08:13;98950.00;;;3.00
15062;BMP180;7630;50.306;8.566;2023-01-28T23:12:14;98945.00;;;3.60
15062;BMP180;7630;50.306;8.566;2023-01-28T23:16:15;98948.00;;;2.50
15062;BMP180;7630;50.306;8.566;2023-01-28T23:20:56;98960.00;;;2.80
15062;BMP180;7630;50.306;8.566;2023-01-28T23:25:18;98949.00;;;2.40
15062;BMP180;7630;50.306;8.566;2023-01-28T23:29:20;98963.00;;;1.40
15062;BMP180;7630;50.306;8.566;2023-01-28T23:33:24;98952.00;;;0.10
15062;BMP180;7630;50.306;8.566;2023-01-28T23:37:25;98950.00;;;1.10
15062;BMP180;7630;50.306;8.566;2023-01-28T23:41:26;98958.00;;;0.40
15062;BMP180;7630;50.306;8.566;2023-01-28T23:45:28;98965.00;;;1.00
15062;BMP180;7630;50.306;8.566;2023-01-28T23:49:29;98950.00;;;0.70
15062;BMP180;7630;50.306;8.566;2023-01-28T23:57:40;98819.00;;;1.40
